Time;durP1;ratioP1;P1;durP2;ratioP2;P2;SDS_P1;SDS_P2;PMS_P1;PMS_P2;Temp;Humidity;BMP_temperature;BMP_pressure;BME280_temperature;BME280_humidity;BME280_pressure;Samples;Min_cycle;Max_cycle;Signal;HPM_P1;HPM_P2
2023/03/19 00:00:43;;;;;;;95.80;87.02;;;;;;;;;;1774824;80;25398;-56
2023/03/19 00:03:12;;;;;;;92.60;83.60;;;;;;;;;;1775141;80;25375;-57
2023/03/19 00:05:39;;;;;;;96.67;88.22;;;;;;;;;;1774907;80;25457;-57
2023/03/19 00:08:06;;;;;;;92.88;85.03;;;;;;;;;;1774787;80;27436;-56
2023/03/19 00:10:38;;;;;;;91.55;82.70;;;;;;;;;;1774690;80;25701;-56
2023/03/19 00:13:05;;;;;;;92.62;83.75;;;;;;;;;;1774823;80;25350;-53
2023/03/19 00:15:33;;;;;;;27.87;13.03;;;;;;;;;;1774694;80;25584;-53
2023/03/19 00:18:00;;;;;;;51.53;37.48;;;;;;;;;;1774747;80;25288;-51
2023/03/19 00:20:27;;;;;;;33.63;15.72;;;;;;;;;;1774784;80;27313;-53
2023/03/19 00:22:54;;;;;;;32.83;15.88;;;;;;;;;;1774676;80;25476;-56
2023/03/19 00:25:22;;;;;;;35.52;16.07;;;;;;;;;;1774745;80;25495;-54
2023/03/19 00:27:50;;;;;;;37.78;16.32;;;;;;;;;;1778474;80;25437;-52
2023/03/19 00:30:17;;;;;;;31.33;15.15;;;;;;;;;;1792206;80;25553;-51
2023/03/19 00:32:44;;;;;;;33.15;15.08;;;;;;;;;;1792281;80;27409;-51
2023/03/19 00:35:12;;;;;;;37.58;16.05;;;;;;;;;;1792083;80;25321;-51
2023/03/19 00:37:39;;;;;;;33.10;16.02;;;;;;;;;;1763211;80;25355;-52
2023/03/19 00:40:09;;;;;;;31.15;15.85;;;;;;;;;;1792134;80;25559;-53
2023/03/19 00:42:36;;;;;;;30.85;15.18;;;;;;;;;;1792365;80;25475;-51
2023/03/19 00:45:05;;;;;;;34.03;15.85;;;;;;;;;;1792170;80;27447;-52
2023/03/19 00:47:32;;;;;;;37.42;15.90;;;;;;;;;;1792256;80;29643;-51
2023/03/19 00:49:59;;;;;;;40.92;16.85;;;;;;;;;;1792206;80;25441;-51
2023/03/19 00:52:26;;;;;;;35.48;16.00;;;;;;;;;;1792125;80;25538;-55
2023/03/19 00:54:53;;;;;;;33.38;15.23;;;;;;;;;;1792304;80;25362;-54
2023/03/19 00:57:21;;;;;;;37.23;15.25;;;;;;;;;;1792240;80;27395;-51
2023/03/19 00:59:48;;;;;;;29.87;14.75;;;;;;;;;;1763092;80;25535;-55
2023/03/19 01:02:16;;;;;;;35.85;15.45;;;;;;;;;;1792256;80;25456;-54
2023/03/19 01:04:43;;;;;;;34.45;16.23;;;;;;;;;;1792333;80;25794;-56
2023/03/19 01:07:10;;;;;;;37.55;17.00;;;;;;;;;;1792304;80;25329;-54
2023/03/19 01:09:37;;;;;;;34.75;15.45;;;;;;;;;;1792341;80;29585;-56
2023/03/19 01:12:06;;;;;;;34.53;15.88;;;;;;;;;;1792127;80;27202;-55
2023/03/19 01:14:33;;;;;;;27.42;13.58;;;;;;;;;;1763208;80;25379;-55
2023/03/19 01:17:00;;;;;;;31.90;15.35;;;;;;;;;;1763241;80;25537;-53
2023/03/19 01:19:29;;;;;;;32.50;14.98;;;;;;;;;;1792152;80;25531;-54
2023/03/19 01:21:56;;;;;;;35.08;15.63;;;;;;;;;;1792107;80;27439;-53
2023/03/19 01:24:23;;;;;;;30.95;15.70;;;;;;;;;;1792001;80;27145;-51
2023/03/19 01:26:50;;;;;;;32.98;14.93;;;;;;;;;;1792201;80;25408;-51
2023/03/19 01:29:17;;;;;;;30.08;15.23;;;;;;;;;;1780008;79;25367;-54
2023/03/19 01:31:44;;;;;;;31.27;14.75;;;;;;;;;;1750421;80;25566;-55
2023/03/19 01:34:12;;;;;;;31.50;14.18;;;;;;;;;;1774677;80;27399;-53
2023/03/19 01:36:39;;;;;;;55.25;49.15;;;;;;;;;;1750069;80;25669;-55
2023/03/19 01:39:06;;;;;;;94.80;85.85;;;;;;;;;;1773689;80;25637;-54
2023/03/19 01:41:33;;;;;;;93.22;84.85;;;;;;;;;;1773861;80;25588;-52
2023/03/19 01:44:00;;;;;;;95.35;86.80;;;;;;;;;;1750142;80;25363;-52
2023/03/19 01:46:30;;;;;;;92.85;84.37;;;;;;;;;;1774698;80;27476;-55
2023/03/19 01:48:59;;;;;;;92.20;83.87;;;;;;;;;;1774574;80;27190;-53
2023/03/19 01:51:33;;;;;;;76.33;69.22;;;;;;;;;;1774830;80;25525;-53
2023/03/19 01:54:03;;;;;;;91.75;83.45;;;;;;;;;;1774612;80;25554;-52
2023/03/19 01:56:36;;;;;;;93.27;84.70;;;;;;;;;;1774667;80;25329;-53
2023/03/19 01:59:06;;;;;;;95.57;86.75;;;;;;;;;;1774676;80;27407;-52
2023/03/19 02:01:36;;;;;;;92.85;84.77;;;;;;;;;;1774551;80;25541;-56
2023/03/19 02:04:04;;;;;;;89.45;81.85;;;;;;;;;;1774701;80;25310;-51
2023/03/19 02:06:33;;;;;;;95.47;86.67;;;;;;;;;;1774655;80;25528;-54
2023/03/19 02:09:01;;;;;;;63.33;57.85;;;;;;;;;;1774805;80;25460;-52
2023/03/19 02:11:28;;;;;;;95.17;86.50;;;;;;;;;;1774618;80;29522;-52
2023/03/19 02:13:55;;;;;;;95.07;86.57;;;;;;;;;;1774562;80;25495;-55
2023/03/19 02:16:22;;;;;;;76.00;68.97;;;;;;;;;;1774642;80;25452;-54
2023/03/19 02:18:50;;;;;;;86.45;78.37;;;;;;;;;;1774608;80;25478;-54
2023/03/19 02:21:18;;;;;;;93.50;85.45;;;;;;;;;;1774708;80;25512;-53
2023/03/19 02:23:48;;;;;;;93.70;85.47;;;;;;;;;;1774626;80;27404;-54
2023/03/19 02:26:18;;;;;;;93.92;85.60;;;;;;;;;;1774655;80;27307;-55
2023/03/19 02:28:48;;;;;;;92.62;84.32;;;;;;;;;;1780019;80;25370;-52
2023/03/19 02:31:17;;;;;;;96.37;87.70;;;;;;;;;;1792065;80;25449;-55
2023/03/19 02:33:46;;;;;;;94.60;85.67;;;;;;;;;;1792352;80;25527;-54
2023/03/19 02:36:16;;;;;;;94.42;85.83;;;;;;;;;;1790178;80;27389;-52
2023/03/19 02:38:44;;;;;;;94.22;85.85;;;;;;;;;;1763000;80;25366;-54
2023/03/19 02:41:11;;;;;;;91.72;83.60;;;;;;;;;;1792091;80;25326;-52
2023/03/19 02:43:40;;;;;;;93.87;85.40;;;;;;;;;;1763217;80;25839;-53
2023/03/19 02:46:10;;;;;;;95.17;86.85;;;;;;;;;;1792288;80;25305;-55
2023/03/19 02:48:37;;;;;;;92.62;84.20;;;;;;;;;;1763039;80;27054;-52
2023/03/19 02:51:05;;;;;;;93.90;85.62;;;;;;;;;;1792094;80;25301;-52
2023/03/19 02:53:33;;;;;;;90.17;82.10;;;;;;;;;;1792073;80;25385;-52
2023/03/19 02:56:01;;;;;;;91.17;83.15;;;;;;;;;;1792050;80;25463;-55
2023/03/19 02:58:28;;;;;;;93.25;85.42;;;;;;;;;;1792062;80;25455;-51
2023/03/19 03:00:55;;;;;;;94.40;86.10;;;;;;;;;;1792062;80;27339;-53
2023/03/19 03:03:23;;;;;;;94.50;86.15;;;;;;;;;;1791997;80;25296;-53
2023/03/19 03:05:49;;;;;;;92.85;84.75;;;;;;;;;;1792101;80;25362;-51
2023/03/19 03:08:17;;;;;;;95.65;87.45;;;;;;;;;;1792012;80;25484;-52
2023/03/19 03:10:44;;;;;;;96.02;87.50;;;;;;;;;;1792130;80;25373;-51
2023/03/19 03:13:11;;;;;;;93.35;84.72;;;;;;;;;;1792055;80;27377;-53
2023/03/19 03:15:38;;;;;;;94.90;86.40;;;;;;;;;;1791946;80;25661;-55
2023/03/19 03:18:05;;;;;;;92.05;84.22;;;;;;;;;;1763134;80;25325;-51
2023/03/19 03:20:32;;;;;;;94.83;86.42;;;;;;;;;;1792005;80;25537;-55
2023/03/19 03:22:59;;;;;;;93.80;85.32;;;;;;;;;;1792082;80;25373;-53
2023/03/19 03:25:27;;;;;;;94.17;85.47;;;;;;;;;;1763546;80;27372;-52
2023/03/19 03:27:54;;;;;;;92.82;85.07;;;;;;;;;;1791957;80;25456;-52
2023/03/19 03:30:22;;;;;;;91.95;83.80;;;;;;;;;;1777137;80;25294;-52
2023/03/19 03:32:49;;;;;;;90.87;83.05;;;;;;;;;;1774534;80;25575;-52
2023/03/19 03:35:20;;;;;;;92.72;84.70;;;;;;;;;;1774741;80;25292;-52
2023/03/19 03:37:45;;;;;;;;;;;;;;;;;;1776798;80;27376;-53
2023/03/19 03:40:14;;;;;;;52.00;46.65;;;;;;;;;;1774555;80;25331;-55
2023/03/19 03:42:42;;;;;;;;;;;;;;;;;;1777265;80;25492;-50
2023/03/19 03:45:11;;;;;;;90.57;83.12;;;;;;;;;;1774780;80;25462;-52
2023/03/19 03:47:38;;;;;;;92.82;85.07;;;;;;;;;;1774788;80;25332;-55
2023/03/19 03:50:09;;;;;;;32.10;14.85;;;;;;;;;;1774785;80;25817;-52
2023/03/19 03:52:37;;;;;;;94.03;85.55;;;;;;;;;;1774651;80;25503;-54
2023/03/19 03:55:06;;;;;;;93.03;85.15;;;;;;;;;;1774747;80;25440;-52
2023/03/19 03:57:34;;;;;;;94.25;86.08;;;;;;;;;;1774808;80;25550;-55
2023/03/19 04:00:03;;;;;;;92.47;84.42;;;;;;;;;;1774820;80;25314;-52
2023/03/19 04:02:30;;;;;;;68.02;61.73;;;;;;;;;;1750460;80;26989;-53
2023/03/19 04:04:57;;;;;;;94.87;86.45;;;;;;;;;;1750347;80;25359;-54
2023/03/19 04:07:25;;;;;;;94.40;85.60;;;;;;;;;;1774742;80;25457;-55
2023/03/19 04:09:53;;;;;;;92.30;84.10;;;;;;;;;;1774738;80;25511;-55
2023/03/19 04:12:20;;;;;;;92.42;84.47;;;;;;;;;;1774759;80;25294;-56
2023/03/19 04:14:47;;;;;;;91.35;83.12;;;;;;;;;;1774726;80;27424;-52
2023/03/19 04:17:14;;;;;;;91.55;83.78;;;;;;;;;;1774614;80;27228;-52
2023/03/19 04:19:42;;;;;;;91.82;83.62;;;;;;;;;;1774725;80;25296;-54
2023/03/19 04:22:09;;;;;;;91.57;83.58;;;;;;;;;;1750406;80;25557;-53
2023/03/19 04:24:36;;;;;;;90.50;82.07;;;;;;;;;;1774742;80;25449;-55
2023/03/19 04:27:03;;;;;;;92.25;84.20;;;;;;;;;;1774782;80;27531;-53
2023/03/19 04:29:30;;;;;;;91.32;83.33;;;;;;;;;;1780724;80;25531;-52
2023/03/19 04:31:57;;;;;;;97.97;88.45;;;;;;;;;;1792135;80;25348;-51
2023/03/19 04:34:24;;;;;;;93.67;85.70;;;;;;;;;;1792113;80;25572;-51
2023/03/19 04:36:51;;;;;;;92.22;84.13;;;;;;;;;;1792242;80;25349;-50
2023/03/19 04:39:18;;;;;;;92.75;84.03;;;;;;;;;;1792247;80;27300;-53
2023/03/19 04:41:45;;;;;;;94.07;86.20;;;;;;;;;;1763298;80;25492;-54
2023/03/19 04:44:12;;;;;;;94.30;86.40;;;;;;;;;;1792152;80;25342;-51
2023/03/19 04:46:39;;;;;;;94.47;86.57;;;;;;;;;;1792102;80;25519;-54
2023/03/19 04:49:07;;;;;;;94.17;86.15;;;;;;;;;;1792332;80;25447;-55
2023/03/19 04:51:33;;;;;;;89.05;80.87;;;;;;;;;;1792207;80;27987;-52
2023/03/19 04:54:00;;;;;;;93.03;85.20;;;;;;;;;;1792153;80;25298;-52
2023/03/19 04:56:27;;;;;;;92.82;84.83;;;;;;;;;;1763254;80;25439;-52
2023/03/19 04:58:54;;;;;;;93.37;85.50;;;;;;;;;;1792127;80;25523;-52
2023/03/19 05:01:22;;;;;;;92.92;84.87;;;;;;;;;;1792178;80;25274;-55
2023/03/19 05:03:49;;;;;;;92.12;84.45;;;;;;;;;;1792155;80;27419;-52
2023/03/19 05:06:18;;;;;;;97.67;89.07;;;;;;;;;;1792081;80;25343;-52
2023/03/19 05:08:46;;;;;;;96.00;87.20;;;;;;;;;;1792279;80;34494;-51
2023/03/19 05:11:13;;;;;;;92.67;84.42;;;;;;;;;;1792099;80;25608;-51
2023/03/19 05:13:40;;;;;;;95.92;87.33;;;;;;;;;;1792256;80;25299;-51
2023/03/19 05:16:08;;;;;;;93.72;85.05;;;;;;;;;;1792144;80;27444;-52
2023/03/19 05:18:35;;;;;;;26.48;12.47;;;;;;;;;;1791990;80;25456;-51
2023/03/19 05:21:03;;;;;;;30.80;19.23;;;;;;;;;;1792114;80;25540;-54
2023/03/19 05:23:31;;;;;;;93.47;85.20;;;;;;;;;;1792074;80;25558;-52
2023/03/19 05:25:59;;;;;;;91.63;84.15;;;;;;;;;;1792152;80;25314;-53
2023/03/19 05:28:27;;;;;;;92.40;84.35;;;;;;;;;;1792490;80;25723;-53
2023/03/19 05:30:55;;;;;;;95.70;87.45;;;;;;;;;;1778014;80;25715;-54
2023/03/19 05:33:23;;;;;;;36.80;31.85;;;;;;;;;;1774674;80;25286;-54
2023/03/19 05:35:51;;;;;;;92.37;84.15;;;;;;;;;;1774643;80;25477;-51
2023/03/19 05:38:18;;;;;;;92.82;84.90;;;;;;;;;;1774702;80;25473;-51
2023/03/19 05:40:45;;;;;;;94.10;85.60;;;;;;;;;;1750231;80;27664;-51
2023/03/19 05:43:13;;;;;;;91.28;83.05;;;;;;;;;;1774548;80;27186;-52
2023/03/19 05:45:41;;;;;;;88.55;80.92;;;;;;;;;;1774678;80;25473;-51
2023/03/19 05:48:08;;;;;;;78.10;71.20;;;;;;;;;;1774761;80;25579;-51
2023/03/19 05:50:35;;;;;;;91.22;83.47;;;;;;;;;;1774922;80;25104;-52
2023/03/19 05:53:03;;;;;;;89.03;81.55;;;;;;;;;;1774735;80;27436;-51
2023/03/19 05:55:30;;;;;;;91.00;83.30;;;;;;;;;;1774550;80;27291;-50
2023/03/19 05:57:56;;;;;;;89.95;82.55;;;;;;;;;;1774748;80;25456;-54
2023/03/19 06:00:24;;;;;;;89.50;80.97;;;;;;;;;;1774602;80;25523;-53
2023/03/19 06:02:51;;;;;;;90.20;82.67;;;;;;;;;;1774663;80;25288;-51
2023/03/19 06:05:19;;;;;;;91.10;83.60;;;;;;;;;;1774633;80;27366;-51
2023/03/19 06:07:46;;;;;;;90.22;82.33;;;;;;;;;;1774683;80;25527;-51
2023/03/19 06:10:13;;;;;;;90.38;81.97;;;;;;;;;;1774639;80;25286;-51
2023/03/19 06:12:41;;;;;;;89.25;81.78;;;;;;;;;;1774584;80;27733;-53
2023/03/19 06:15:09;;;;;;;26.07;12.47;;;;;;;;;;1774683;80;25417;-52
2023/03/19 06:17:36;;;;;;;91.22;83.25;;;;;;;;;;1774667;80;27528;-52
2023/03/19 06:20:04;;;;;;;92.75;84.75;;;;;;;;;;1774572;80;25627;-53
2023/03/19 06:22:31;;;;;;;93.35;85.45;;;;;;;;;;1750393;80;25484;-52
2023/03/19 06:24:58;;;;;;;89.90;82.50;;;;;;;;;;1774746;80;25681;-51
2023/03/19 06:27:25;;;;;;;91.97;84.10;;;;;;;;;;1774797;80;25390;-52
2023/03/19 06:29:53;;;;;;;90.22;82.90;;;;;;;;;;1774593;80;29586;-52
2023/03/19 06:32:20;;;;;;;93.40;85.50;;;;;;;;;;1774583;80;25433;-53
2023/03/19 06:34:46;;;;;;;91.35;83.30;;;;;;;;;;1750213;80;25338;-53
2023/03/19 06:37:13;;;;;;;93.15;85.50;;;;;;;;;;1774595;80;25486;-54
2023/03/19 06:39:41;;;;;;;89.20;81.63;;;;;;;;;;1774659;80;25311;-54
2023/03/19 06:42:08;;;;;;;89.55;81.85;;;;;;;;;;1774749;80;27371;-56
2023/03/19 06:44:35;;;;;;;87.27;79.95;;;;;;;;;;1750436;80;25392;-55
2023/03/19 06:47:02;;;;;;;89.15;81.37;;;;;;;;;;1774752;80;25315;-52
2023/03/19 06:49:29;;;;;;;89.03;81.55;;;;;;;;;;1750371;80;26257;-53
2023/03/19 06:51:56;;;;;;;92.62;84.62;;;;;;;;;;1774705;80;25369;-51
2023/03/19 06:54:23;;;;;;;86.82;79.53;;;;;;;;;;1774607;80;27405;-54
2023/03/19 06:56:50;;;;;;;90.07;82.00;;;;;;;;;;1774666;80;25525;-53
2023/03/19 06:59:18;;;;;;;91.22;83.75;;;;;;;;;;1750156;80;25461;-55
2023/03/19 07:01:45;;;;;;;93.30;85.62;;;;;;;;;;1774646;80;25882;-51
2023/03/19 07:04:13;;;;;;;91.10;83.25;;;;;;;;;;1774720;80;25460;-54
2023/03/19 07:06:40;;;;;;;92.97;84.72;;;;;;;;;;1774675;80;27522;-54
2023/03/19 07:09:07;;;;;;;96.28;88.17;;;;;;;;;;1750386;80;25500;-54
2023/03/19 07:11:34;;;;;;;87.82;80.65;;;;;;;;;;1774681;80;25599;-52
2023/03/19 07:14:02;;;;;;;91.45;83.45;;;;;;;;;;1774665;80;25852;-55
2023/03/19 07:16:30;;;;;;;92.17;83.90;;;;;;;;;;1774844;80;25416;-55
2023/03/19 07:18:57;;;;;;;91.22;83.30;;;;;;;;;;1774768;80;27886;-55
2023/03/19 07:21:25;;;;;;;87.60;80.07;;;;;;;;;;1750303;80;25400;-54
2023/03/19 07:23:52;;;;;;;89.60;82.37;;;;;;;;;;1774784;80;25461;-57
2023/03/19 07:26:20;;;;;;;87.42;79.90;;;;;;;;;;1774775;80;25599;-55
2023/03/19 07:28:48;;;;;;;89.52;81.80;;;;;;;;;;1774950;80;25343;-56
2023/03/19 07:31:15;;;;;;;90.60;82.72;;;;;;;;;;1774649;80;27381;-53
2023/03/19 07:33:44;;;;;;;95.17;87.27;;;;;;;;;;1774783;80;25420;-54
2023/03/19 07:36:12;;;;;;;90.05;82.57;;;;;;;;;;1775019;80;25465;-56
2023/03/19 07:38:39;;;;;;;76.92;69.97;;;;;;;;;;1774843;80;25559;-52
2023/03/19 07:41:08;;;;;;;88.97;81.95;;;;;;;;;;1774845;80;25373;-56
2023/03/19 07:43:36;;;;;;;87.88;80.87;;;;;;;;;;1774915;80;27408;-53
2023/03/19 07:46:04;;;;;;;83.55;76.70;;;;;;;;;;1774716;80;25295;-52
2023/03/19 07:48:32;;;;;;;90.40;82.90;;;;;;;;;;1774809;80;25364;-54
2023/03/19 07:51:01;;;;;;;91.02;83.90;;;;;;;;;;1774860;80;26302;-55
2023/03/19 07:53:31;;;;;;;73.85;67.35;;;;;;;;;;1774837;80;25353;-55
2023/03/19 07:55:58;;;;;;;91.63;84.25;;;;;;;;;;1774750;80;27340;-56
2023/03/19 07:58:25;;;;;;;89.85;82.50;;;;;;;;;;1774651;80;25471;-54
2023/03/19 08:00:55;;;;;;;91.70;84.32;;;;;;;;;;1774775;80;25281;-54
2023/03/19 08:03:22;;;;;;;26.50;13.90;;;;;;;;;;1774739;80;25499;-53
2023/03/19 08:05:51;;;;;;;34.53;30.35;;;;;;;;;;1774817;80;25307;-52
2023/03/19 08:08:18;;;;;;;31.73;16.48;;;;;;;;;;1750309;80;28182;-54
2023/03/19 08:10:49;;;;;;;51.77;47.13;;;;;;;;;;1774658;80;25521;-53
2023/03/19 08:13:16;;;;;;;92.00;85.10;;;;;;;;;;1774627;80;25536;-55
2023/03/19 08:15:43;;;;;;;89.47;82.40;;;;;;;;;;1774657;80;25461;-56
2023/03/19 08:18:11;;;;;;;89.72;82.65;;;;;;;;;;1774692;80;25535;-55
2023/03/19 08:20:38;;;;;;;88.03;80.92;;;;;;;;;;1774722;80;27371;-57
2023/03/19 08:23:05;;;;;;;87.90;81.22;;;;;;;;;;1774700;80;25435;-55
2023/03/19 08:25:32;;;;;;;90.32;83.30;;;;;;;;;;1774776;80;25417;-55
2023/03/19 08:28:00;;;;;;;26.68;14.25;;;;;;;;;;1774709;80;25521;-57
2023/03/19 08:30:27;;;;;;;25.92;14.40;;;;;;;;;;1774679;80;25771;-56
2023/03/19 08:32:55;;;;;;;22.58;14.13;;;;;;;;;;1774789;80;27553;-57
2023/03/19 08:35:25;;;;;;;22.17;13.18;;;;;;;;;;1774672;80;25496;-55
2023/03/19 08:37:53;;;;;;;26.90;14.55;;;;;;;;;;1774842;80;25473;-57
2023/03/19 08:40:22;;;;;;;24.30;13.20;;;;;;;;;;1774188;80;26207;-57
2023/03/19 08:42:49;;;;;;;25.10;14.57;;;;;;;;;;1773467;80;25573;-60
2023/03/19 08:45:18;;;;;;;23.27;14.53;;;;;;;;;;1774361;80;27395;-60
2023/03/19 08:47:45;;;;;;;23.57;13.83;;;;;;;;;;1774796;80;25589;-60
2023/03/19 08:50:12;;;;;;;21.77;14.60;;;;;;;;;;1774726;80;25310;-60
2023/03/19 08:52:39;;;;;;;26.85;14.43;;;;;;;;;;1774704;80;26307;-61
2023/03/19 08:55:08;;;;;;;23.83;14.13;;;;;;;;;;1750448;80;25366;-58
2023/03/19 08:57:36;;;;;;;23.52;14.33;;;;;;;;;;1774703;80;27434;-50
2023/03/19 09:00:05;;;;;;;21.30;14.20;;;;;;;;;;1774612;80;25133;-49
2023/03/19 09:02:33;;;;;;;21.10;13.72;;;;;;;;;;1750785;80;25540;-71
2023/03/19 09:05:00;;;;;;;24.57;14.43;;;;;;;;;;1774692;80;25714;-72
2023/03/19 09:07:27;;;;;;;28.70;14.28;;;;;;;;;;1750381;80;25478;-75
2023/03/19 09:09:55;;;;;;;23.70;14.18;;;;;;;;;;1774912;80;26994;-76
2023/03/19 09:12:22;;;;;;;25.35;13.98;;;;;;;;;;1774720;80;25370;-63
2023/03/19 09:14:49;;;;;;;24.57;14.47;;;;;;;;;;1750331;80;25556;-63
2023/03/19 09:17:17;;;;;;;33.38;29.85;;;;;;;;;;1774746;80;25895;-64
2023/03/19 09:19:44;;;;;;;36.80;33.18;;;;;;;;;;1774810;80;25480;-64
2023/03/19 09:22:11;;;;;;;24.47;12.20;;;;;;;;;;1774818;80;27922;-63
2023/03/19 09:24:38;;;;;;;45.73;41.95;;;;;;;;;;1725365;80;26058;-62
2023/03/19 09:27:05;;;;;;;20.57;13.38;;;;;;;;;;1750364;80;25408;-63
2023/03/19 09:29:32;;;;;;;41.02;37.55;;;;;;;;;;1774734;80;25659;-64
2023/03/19 09:31:59;;;;;;;77.08;71.28;;;;;;;;;;1786385;79;25502;-71
2023/03/19 09:34:27;;;;;;;66.50;61.33;;;;;;;;;;1792229;80;27373;-71
2023/03/19 09:36:54;;;;;;;82.67;76.62;;;;;;;;;;1763118;80;25496;-72
2023/03/19 09:39:21;;;;;;;84.62;78.17;;;;;;;;;;1792148;80;25478;-73
2023/03/19 09:41:58;;;;;;;81.17;75.03;;;;;;;;;;1792081;80;25490;-71
2023/03/19 09:44:31;;;;;;;17.30;11.28;;;;;;;;;;1791889;80;25359;-70
2023/03/19 09:47:18;;;;;;;84.80;78.65;;;;;;;;;;1788292;80;28245;-76
2023/03/19 09:49:49;;;;;;;82.78;76.72;;;;;;;;;;1791269;80;25513;-74
2023/03/19 09:52:40;;;;;;;80.32;74.50;;;;;;;;;;1791269;80;25662;-73
2023/03/19 09:55:36;;;;;;;28.95;16.15;;;;;;;;;;1790719;80;25489;-71
2023/03/19 09:58:11;;;;;;;18.62;12.05;;;;;;;;;;1792334;80;25330;-72
2023/03/19 10:00:39;;;;;;;18.20;11.90;;;;;;;;;;1790681;80;27762;-71
2023/03/19 10:03:20;;;;;;;20.27;12.05;;;;;;;;;;1792283;80;25325;-72
2023/03/19 10:06:06;;;;;;;23.95;12.37;;;;;;;;;;1792305;80;25064;-72
2023/03/19 10:08:46;;;;;;;20.65;12.18;;;;;;;;;;1792266;80;25480;-71
2023/03/19 10:11:26;;;;;;;19.23;11.40;;;;;;;;;;1791872;80;25316;-70
2023/03/19 10:14:00;;;;;;;17.40;10.40;;;;;;;;;;1791742;80;27419;-71
2023/03/19 10:16:28;;;;;;;16.87;10.78;;;;;;;;;;1791102;80;25708;-72
2023/03/19 10:18:58;;;;;;;15.90;10.30;;;;;;;;;;1792095;80;25368;-73
2023/03/19 10:21:34;;;;;;;17.35;10.45;;;;;;;;;;1792104;80;25649;-71
2023/03/19 10:24:08;;;;;;;16.32;10.32;;;;;;;;;;1792208;80;25364;-71
2023/03/19 10:26:35;;;;;;;71.80;66.75;;;;;;;;;;1792222;80;27518;-71
2023/03/19 10:29:09;;;;;;;80.70;75.30;;;;;;;;;;1792187;80;25547;-71
2023/03/19 10:31:59;;;;;;;81.28;75.45;;;;;;;;;;1782725;79;25309;-73
2023/03/19 10:34:33;;;;;;;83.80;77.10;;;;;;;;;;1774294;80;25564;-73
2023/03/19 10:37:07;;;;;;;81.17;75.70;;;;;;;;;;1749149;80;25386;-73
2023/03/19 10:39:37;;;;;;;17.07;11.03;;;;;;;;;;1750055;80;27399;-73
2023/03/19 10:42:11;;;;;;;20.40;10.90;;;;;;;;;;1750775;80;31727;-71
2023/03/19 10:44:50;;;;;;;18.90;12.13;;;;;;;;;;1774795;80;25346;-73
2023/03/19 10:47:21;;;;;;;24.27;12.35;;;;;;;;;;1774713;80;25480;-74
2023/03/19 10:49:50;;;;;;;29.42;26.62;;;;;;;;;;1774803;80;25286;-74
2023/03/19 10:52:30;;;;;;;81.32;75.65;;;;;;;;;;1775052;80;26754;-70
2023/03/19 10:55:13;;;;;;;81.12;75.52;;;;;;;;;;1774850;80;25357;-74
2023/03/19 10:57:43;;;;;;;18.17;10.45;;;;;;;;;;1750127;80;25404;-76
2023/03/19 11:00:17;;;;;;;17.48;10.35;;;;;;;;;;1774843;80;26067;-73
2023/03/19 11:04:28;;;;;;;14.73;9.63;;;;;;;21.85;28.95;100428.56;1887113;76;25289;-57
2023/03/19 11:07:02;;;;;;;15.48;10.50;;;;;;;21.86;28.33;100427.97;1858408;77;25415;-63
2023/03/19 11:09:37;;;;;;;22.70;13.60;;;;;;;22.18;29.01;100417.16;1858164;77;28022;-64
2023/03/19 11:12:25;;;;;;;15.65;9.65;;;;;;;22.99;29.49;100406.87;1788013;80;25545;-62
2023/03/19 11:14:57;;;;;;;13.90;9.25;;;;;;;24.18;29.34;100404.89;1820403;78;25432;-62
2023/03/19 11:17:46;;;;;;;13.43;9.53;;;;;;;25.30;28.62;100413.46;1788116;80;25386;-61
2023/03/19 11:20:33;;;;;;;13.05;9.00;;;;;;;25.68;27.34;100409.98;1820566;78;25387;-63
2023/03/19 11:23:03;;;;;;;12.95;8.95;;;;;;;25.14;25.10;100419.45;1788035;80;29734;-63
2023/03/19 11:25:37;;;;;;;16.87;9.50;;;;;;;24.44;25.64;100413.89;1759598;78;25416;-57
2023/03/19 11:28:18;;;;;;;12.47;8.70;;;;;;;24.05;25.72;100407.89;1788143;80;25537;-54
2023/03/19 11:31:07;;;;;;;13.65;8.73;;;;;;;23.42;25.83;100400.63;1819023;78;25531;-54
2023/03/19 11:34:08;;;;;;;14.98;8.85;;;;;;;23.38;26.55;100390.17;1788065;80;25597;-55
2023/03/19 11:37:04;;;;;;;11.35;8.40;;;;;;;23.17;26.06;100384.05;1820301;78;29603;-55
2023/03/19 11:39:42;;;;;;;12.25;8.08;;;;;;;22.51;25.09;100374.84;1708715;82;25434;-56
2023/03/19 11:42:26;;;;;;;11.83;8.20;;;;;;;22.12;25.55;100371.30;1749131;82;25518;-56
2023/03/19 11:45:31;;;;;;;13.15;7.75;;;;;;;21.93;26.13;100375.70;1750449;82;25505;-57
2023/03/19 11:48:26;;;;;;;11.15;7.85;;;;;;;21.67;26.57;100382.22;1750547;82;25775;-56
2023/03/19 11:51:04;;;;;;;11.18;8.23;;;;;;;21.49;26.65;100382.89;1750609;82;27531;-56
2023/03/19 11:53:55;;;;;;;12.90;8.90;;;;;;;21.02;25.83;100380.27;1733714;82;25479;-60
2023/03/19 11:57:02;;;;;;;14.00;8.85;;;;;;;20.54;26.37;100371.30;1801863;79;25626;-61
2023/03/19 12:00:03;;;;;;;13.15;8.90;;;;;;;20.31;27.33;100368.66;1802220;79;25522;-59
2023/03/19 12:02:44;;;;;;;11.53;8.10;;;;;;;20.07;27.10;100364.42;1802106;79;25637;-58
2023/03/19 12:05:32;;;;;;;13.62;8.93;;;;;;;19.88;27.99;100360.64;1801666;79;27558;-60
2023/03/19 12:08:10;;;;;;;14.15;8.65;;;;;;;20.06;28.17;100360.89;1733564;82;25612;-58
2023/03/19 12:10:57;;;;;;;15.25;8.83;;;;;;;20.01;27.95;100365.34;1801309;79;25541;-60
2023/03/19 12:13:38;;;;;;;14.98;8.93;;;;;;;19.85;27.99;100360.00;1751892;80;25650;-59
2023/03/19 12:16:16;;;;;;;15.85;9.60;;;;;;;19.74;28.27;100362.60;1819896;78;25578;-58
2023/03/19 12:18:58;;;;;;;16.95;10.23;;;;;;;19.60;27.98;100350.80;1787565;80;27463;-59
2023/03/19 12:21:50;;;;;;;14.33;9.90;;;;;;;19.44;28.08;100369.94;1819614;78;26294;-59
2023/03/19 12:24:40;;;;;;;16.40;9.63;;;;;;;19.40;28.55;100358.33;1787488;80;25447;-59
2023/03/19 12:27:41;;;;;;;16.17;10.32;;;;;;;19.41;28.55;100347.58;1786203;80;25557;-59
2023/03/19 12:30:35;;;;;;;13.28;9.88;;;;;;;19.30;28.20;100359.53;1819847;78;25559;-59
2023/03/19 12:33:23;;;;;;;14.78;10.00;;;;;;;18.90;28.27;100360.23;1787540;80;27667;-59
2023/03/19 12:35:54;;;;;;;14.57;9.57;;;;;;;18.65;28.96;100352.29;1820060;78;25754;-59
2023/03/19 12:38:33;;;;;;;11.95;8.68;;;;;;;18.67;29.74;100351.93;1787610;80;25415;-59
2023/03/19 12:41:13;;;;;;;14.50;9.57;;;;;;;18.93;29.56;100347.14;1787432;80;27309;-61
2023/03/19 12:44:00;;;;;;;14.90;9.35;;;;;;;19.16;28.88;100335.41;1787465;80;25383;-60
2023/03/19 12:46:43;;;;;;;13.80;8.73;;;;;;;19.11;28.58;100333.76;1787462;80;27508;-60
2023/03/19 12:49:35;;;;;;;13.68;8.75;;;;;;;19.04;28.56;100339.91;1787368;80;25400;-60
2023/03/19 12:52:16;;;;;;;13.98;8.45;;;;;;;19.03;28.19;100347.12;1754896;80;25472;-59
2023/03/19 12:54:48;;;;;;;11.97;8.45;;;;;;;19.16;29.21;100341.67;1787293;80;25506;-59
2023/03/19 12:57:43;;;;;;;15.25;8.90;;;;;;;19.02;28.62;100331.86;1756606;80;25631;-59
2023/03/19 13:00:46;;;;;;;20.10;8.98;;;;;;;18.97;29.16;100343.13;1787477;80;27678;-57
2023/03/19 13:03:40;;;;;;;14.93;8.20;;;;;;;18.88;29.18;100331.00;1787256;80;25550;-59
2023/03/19 13:06:12;;;;;;;12.10;8.48;;;;;;;18.69;28.94;100329.06;1787616;80;25557;-58
2023/03/19 13:09:12;;;;;;;16.67;9.30;;;;;;;18.53;29.09;100337.39;1786646;80;25560;-60
2023/03/19 13:11:48;;;;;;;15.88;9.18;;;;;;;18.32;29.24;100330.11;1756718;80;25575;-59
2023/03/19 13:14:32;;;;;;;12.95;7.92;;;;;;;18.35;29.74;100313.75;1787490;80;27495;-60
2023/03/19 13:17:37;;;;;;;13.03;8.18;;;;;;;18.56;29.81;100322.97;1756544;80;25904;-60
2023/03/19 13:20:15;;;;;;;13.85;8.35;;;;;;;18.71;29.28;100316.38;1756697;80;25497;-59
2023/03/19 13:22:47;;;;;;;13.68;7.97;;;;;;;18.65;29.57;100315.30;1772510;80;25797;-59
2023/03/19 13:25:21;;;;;;;13.45;7.97;;;;;;;18.69;29.58;100309.89;1756665;80;25576;-61
2023/03/19 13:27:55;;;;;;;13.90;7.37;;;;;;;18.61;29.34;100297.21;1787409;80;27479;-61
2023/03/19 13:30:24;;;;;;;12.13;7.75;;;;;;;18.65;29.74;100303.56;1787291;80;25430;-60
2023/03/19 13:33:04;;;;;;;12.82;8.28;;;;;;;18.65;29.06;100309.05;1787413;80;25510;-60
2023/03/19 13:35:50;;;;;;;13.50;7.92;;;;;;;18.48;29.05;100303.45;1787360;80;25593;-68
2023/03/19 13:38:42;;;;;;;12.35;7.80;;;;;;;18.41;29.30;100304.69;1787494;80;25593;-66
2023/03/19 13:41:41;;;;;;;11.80;7.42;;;;;;;18.53;29.64;100299.05;1787409;80;27502;-67
2023/03/19 13:44:25;;;;;;;13.60;7.92;;;;;;;18.52;29.54;100296.66;1787456;80;27373;-68
2023/03/19 13:46:52;;;;;;;12.65;7.72;;;;;;;18.50;29.47;100298.39;1776468;80;25434;-67
2023/03/19 13:49:26;;;;;;;13.70;8.25;;;;;;;18.58;29.24;100306.96;1787373;80;27400;-67
2023/03/19 13:52:00;;;;;;;13.08;7.47;;;;;;;18.39;28.49;100303.67;1787517;80;25463;-67
2023/03/19 13:54:38;;;;;;;12.33;7.37;;;;;;;18.25;29.00;100298.72;1756764;80;27677;-68
2023/03/19 13:57:15;;;;;;;11.53;7.47;;;;;;;18.10;29.36;100292.16;1756500;80;25626;-68
2023/03/19 13:59:45;;;;;;;13.80;8.03;;;;;;;18.12;29.41;100297.27;1787465;80;25438;-68